Time;durP1;ratioP1;P1;durP2;ratioP2;P2;SDS_P1;SDS_P2;PMS_P1;PMS_P2;Temp;Humidity;BMP_temperature;BMP_pressure;BME280_temperature;BME280_humidity;BME280_pressure;Samples;Min_cycle;Max_cycle;Signal;HPM_P1;HPM_P2
2022/04/28 00:00:09;;;;;;;12.45;2.72;;;;;;;;;;5001064;28;20061;-70
2022/04/28 00:02:37;;;;;;;14.32;3.05;;;;;;;;;;4998978;28;20606;-70
2022/04/28 00:05:05;;;;;;;9.85;2.25;;;;;;;;;;4994825;28;20054;-70
2022/04/28 00:07:32;;;;;;;12.05;2.70;;;;;;;;;;4998804;28;20057;-70
2022/04/28 00:09:59;;;;;;;18.13;3.33;;;;;;;;;;5001844;28;20065;-70
2022/04/28 00:12:26;;;;;;;12.65;2.90;;;;;;;;;;5003150;28;20068;-70
2022/04/28 00:14:53;;;;;;;13.90;2.88;;;;;;;;;;4994095;28;20571;-70
2022/04/28 00:17:22;;;;;;;9.00;2.55;;;;;;;;;;5004682;28;20061;-70
2022/04/28 00:19:49;;;;;;;12.20;2.90;;;;;;;;;;5000917;28;20057;-70
2022/04/28 00:22:17;;;;;;;14.60;3.13;;;;;;;;;;5004670;28;20057;-70
2022/04/28 00:24:44;;;;;;;11.82;2.70;;;;;;;;;;4998896;28;20628;-70
2022/04/28 00:27:11;;;;;;;11.98;2.80;;;;;;;;;;5004190;28;20049;-70
2022/04/28 00:29:39;;;;;;;10.77;3.05;;;;;;;;;;4995927;28;20058;-70
2022/04/28 00:32:07;;;;;;;11.60;2.80;;;;;;;;;;5001770;28;20057;-70
2022/04/28 00:34:35;;;;;;;15.02;2.70;;;;;;;;;;4999610;28;20046;-70
2022/04/28 00:37:02;;;;;;;11.50;3.00;;;;;;;;;;5001870;28;20065;-70
2022/04/28 00:39:30;;;;;;;10.98;2.67;;;;;;;;;;5002912;28;20066;-70
2022/04/28 00:41:57;;;;;;;17.10;2.92;;;;;;;;;;5001763;28;20061;-70
2022/04/28 00:44:24;;;;;;;9.85;2.65;;;;;;;;;;5002927;28;20041;-70
2022/04/28 00:46:51;;;;;;;18.17;2.90;;;;;;;;;;4994692;28;20063;-70
2022/04/28 00:52:07;;;;;;;8.25;2.30;;;;;;;;;;5001366;28;20057;-70
2022/04/28 00:54:34;;;;;;;14.20;3.25;;;;;;;;;;5000852;28;20448;-70
2022/04/28 00:57:02;;;;;;;17.10;2.90;;;;;;;;;;5002392;28;20054;-70
2022/04/28 00:59:29;;;;;;;11.68;2.63;;;;;;;;;;4999833;28;20068;-70
2022/04/28 01:01:56;;;;;;;14.30;3.30;;;;;;;;;;4998497;28;20116;-70
2022/04/28 01:04:24;;;;;;;9.85;2.10;;;;;;;;;;5000632;28;20096;-70
2022/04/28 01:06:52;;;;;;;11.18;2.55;;;;;;;;;;4999803;28;20057;-70
2022/04/28 01:09:20;;;;;;;12.60;2.28;;;;;;;;;;5005218;28;20057;-70
2022/04/28 01:11:48;;;;;;;11.07;2.50;;;;;;;;;;5001426;28;20061;-70
2022/04/28 01:14:15;;;;;;;10.18;2.35;;;;;;;;;;5006777;28;20053;-70
2022/04/28 01:16:42;;;;;;;12.80;2.83;;;;;;;;;;5000520;28;20049;-71
2022/04/28 01:19:09;;;;;;;18.60;3.45;;;;;;;;;;5008396;28;20056;-71
2022/04/28 01:21:38;;;;;;;12.23;3.42;;;;;;;;;;5013518;28;20073;-71
2022/04/28 01:24:06;;;;;;;11.35;3.15;;;;;;;;;;5007303;28;20073;-72
2022/04/28 01:26:34;;;;;;;9.60;3.40;;;;;;;;;;5009593;28;20045;-71
2022/04/28 01:29:01;;;;;;;12.50;3.42;;;;;;;;;;5009994;28;20062;-70
2022/04/28 01:31:28;;;;;;;7.90;2.78;;;;;;;;;;5010902;28;20049;-70
2022/04/28 01:33:55;;;;;;;11.07;2.92;;;;;;;;;;5006935;28;20050;-71
2022/04/28 01:36:23;;;;;;;10.63;3.10;;;;;;;;;;5007505;28;20148;-71
2022/04/28 01:38:51;;;;;;;14.25;3.20;;;;;;;;;;5007053;28;20053;-71
2022/04/28 01:41:19;;;;;;;12.15;3.40;;;;;;;;;;5009212;28;20049;-71
2022/04/28 01:43:46;;;;;;;14.52;3.45;;;;;;;;;;5009196;28;20463;-71
2022/04/28 01:46:13;;;;;;;15.10;3.63;;;;;;;;;;5009173;28;20057;-71
2022/04/28 01:48:40;;;;;;;10.52;2.80;;;;;;;;;;5009453;28;20133;-71
2022/04/28 01:56:39;;;;;;;14.50;3.05;;;;;;;;;;5007779;28;20075;-71
2022/04/28 01:59:06;;;;;;;13.57;3.50;;;;;;;;;;5008302;28;20050;-71
2022/04/28 02:01:33;;;;;;;11.90;3.22;;;;;;;;;;5003536;28;20050;-71
2022/04/28 02:04:00;;;;;;;12.63;3.83;;;;;;;;;;5006902;28;20072;-71
2022/04/28 02:06:28;;;;;;;10.88;3.20;;;;;;;;;;5009872;28;20402;-71
2022/04/28 02:08:56;;;;;;;14.57;3.60;;;;;;;;;;5010123;28;20089;-71
2022/04/28 02:11:24;;;;;;;12.68;2.83;;;;;;;;;;5006988;28;20564;-71
2022/04/28 02:13:51;;;;;;;11.02;2.80;;;;;;;;;;5010650;28;20072;-71
2022/04/28 02:16:19;;;;;;;12.88;2.72;;;;;;;;;;5008785;28;20054;-71
2022/04/28 02:18:46;;;;;;;13.00;2.53;;;;;;;;;;5007990;28;20045;-71
2022/04/28 02:21:13;;;;;;;11.98;2.35;;;;;;;;;;5008801;28;20075;-71
2022/04/28 02:23:40;;;;;;;10.75;2.55;;;;;;;;;;5007394;28;20046;-71
2022/04/28 02:26:09;;;;;;;11.00;2.50;;;;;;;;;;5008893;28;20496;-71
2022/04/28 02:28:36;;;;;;;8.20;2.22;;;;;;;;;;5009057;28;20054;-71
2022/04/28 02:31:04;;;;;;;12.55;2.72;;;;;;;;;;5008723;28;20062;-71
2022/04/28 02:33:31;;;;;;;13.20;3.20;;;;;;;;;;5005454;28;20041;-71
2022/04/28 02:35:58;;;;;;;9.35;3.00;;;;;;;;;;5008688;28;20053;-71
2022/04/28 02:38:26;;;;;;;9.65;2.75;;;;;;;;;;5010376;28;20050;-71
2022/04/28 02:40:53;;;;;;;11.13;2.85;;;;;;;;;;5006506;28;20056;-71
2022/04/28 02:43:22;;;;;;;10.40;2.80;;;;;;;;;;5005371;28;20108;-71
2022/04/28 02:45:50;;;;;;;10.00;3.10;;;;;;;;;;5010401;28;20057;-71
2022/04/28 02:48:17;;;;;;;7.18;2.45;;;;;;;;;;5007501;28;20049;-71
2022/04/28 02:50:44;;;;;;;8.18;2.75;;;;;;;;;;5009308;28;20049;-71
2022/04/28 02:53:12;;;;;;;13.35;2.95;;;;;;;;;;5007038;28;20050;-71
2022/04/28 02:55:40;;;;;;;10.38;3.30;;;;;;;;;;5007365;28;20073;-71
2022/04/28 02:58:08;;;;;;;13.23;3.40;;;;;;;;;;5007961;28;20053;-71
2022/04/28 03:00:37;;;;;;;10.13;2.80;;;;;;;;;;5007896;28;20116;-71
2022/04/28 03:03:05;;;;;;;10.02;2.97;;;;;;;;;;5004646;28;20094;-71
2022/04/28 03:10:46;;;;;;;17.27;3.47;;;;;;;;;;5007648;28;20148;-71
2022/04/28 03:11:04;;;;;;;14.23;3.70;;;;;;;;;;5007161;28;20065;-70
2022/04/28 03:13:32;;;;;;;8.05;2.85;;;;;;;;;;5006767;28;20049;-70
2022/04/28 03:16:01;;;;;;;13.00;2.70;;;;;;;;;;5009087;28;20585;-70
2022/04/28 03:18:28;;;;;;;8.20;2.80;;;;;;;;;;5004205;28;20064;-70
2022/04/28 03:20:55;;;;;;;11.75;3.17;;;;;;;;;;5007186;28;20053;-70
2022/04/28 03:23:23;;;;;;;12.88;3.35;;;;;;;;;;5007532;28;20081;-70
2022/04/28 03:25:51;;;;;;;11.82;3.13;;;;;;;;;;5006898;28;20050;-70
2022/04/28 03:28:19;;;;;;;11.35;3.28;;;;;;;;;;5006239;28;20492;-70
2022/04/28 03:30:47;;;;;;;11.25;2.90;;;;;;;;;;5002513;28;20632;-70
2022/04/28 03:33:16;;;;;;;8.90;2.80;;;;;;;;;;5006452;28;20157;-71
2022/04/28 03:35:43;;;;;;;8.77;3.20;;;;;;;;;;5003799;28;20042;-71
2022/04/28 03:38:12;;;;;;;7.82;3.05;;;;;;;;;;5005300;28;20524;-71
2022/04/28 03:40:39;;;;;;;11.32;2.90;;;;;;;;;;5002009;28;20767;-71
2022/04/28 03:43:06;;;;;;;9.68;2.90;;;;;;;;;;5006417;28;20057;-70
2022/04/28 03:45:33;;;;;;;12.85;3.00;;;;;;;;;;5003929;28;20050;-70
2022/04/28 03:48:01;;;;;;;9.50;2.95;;;;;;;;;;5006523;28;20077;-70
2022/04/28 03:50:30;;;;;;;12.05;3.40;;;;;;;;;;5001814;28;20618;-70
2022/04/28 03:52:57;;;;;;;15.27;3.10;;;;;;;;;;5003705;28;20072;-70
2022/04/28 03:55:25;;;;;;;5.60;2.65;;;;;;;;;;5006720;28;20050;-70
2022/04/28 03:57:52;;;;;;;16.63;3.30;;;;;;;;;;5006251;28;20050;-70
2022/04/28 04:00:20;;;;;;;11.32;2.80;;;;;;;;;;5007023;28;20895;-70
2022/04/28 04:02:47;;;;;;;11.35;3.28;;;;;;;;;;5006002;28;20409;-70
2022/04/28 04:05:14;;;;;;;6.78;2.65;;;;;;;;;;5000371;28;20057;-70
2022/04/28 04:07:43;;;;;;;14.10;3.85;;;;;;;;;;5005988;28;20062;-70
2022/04/28 04:10:11;;;;;;;13.98;3.53;;;;;;;;;;5005914;28;20061;-70
2022/04/28 04:12:39;;;;;;;10.95;3.67;;;;;;;;;;5006349;28;20056;-70
2022/04/28 04:15:07;;;;;;;13.43;3.70;;;;;;;;;;5008376;28;20046;-70
2022/04/28 04:17:40;;;;;;;17.52;3.83;;;;;;;;;;5003827;28;20107;-70
2022/04/28 04:20:08;;;;;;;16.42;4.20;;;;;;;;;;5005993;28;20093;-70
2022/04/28 04:22:36;;;;;;;14.40;3.85;;;;;;;;;;5006010;28;20437;-70
2022/04/28 04:25:06;;;;;;;10.98;4.18;;;;;;;;;;5006266;28;20470;-70
2022/04/28 04:27:33;;;;;;;15.20;3.80;;;;;;;;;;5004642;28;20049;-70
2022/04/28 04:32:17;;;;;;;15.63;3.45;;;;;;;;;;5006569;28;20140;-70
2022/04/28 04:32:48;;;;;;;11.38;3.22;;;;;;;;;;4999940;28;20053;-70
2022/04/28 04:35:15;;;;;;;17.67;3.40;;;;;;;;;;4999336;28;20607;-70
2022/04/28 04:37:43;;;;;;;14.73;3.03;;;;;;;;;;4997861;28;20057;-70
2022/04/28 04:40:13;;;;;;;12.38;3.10;;;;;;;;;;4997618;28;20050;-71
2022/04/28 04:42:40;;;;;;;15.57;2.97;;;;;;;;;;4999011;28;20172;-71
2022/04/28 04:45:08;;;;;;;10.35;2.40;;;;;;;;;;4999087;28;20421;-71
2022/04/28 04:47:36;;;;;;;15.18;3.38;;;;;;;;;;5000620;28;20053;-71
2022/04/28 04:50:03;;;;;;;13.48;2.47;;;;;;;;;;5006937;28;20049;-71
2022/04/28 04:52:31;;;;;;;13.70;3.33;;;;;;;;;;5002421;28;20694;-71
2022/04/28 04:54:58;;;;;;;15.00;3.90;;;;;;;;;;5001044;28;20057;-71
2022/04/28 04:57:26;;;;;;;12.10;2.78;;;;;;;;;;4998694;28;20046;-71
2022/04/28 04:59:56;;;;;;;16.02;3.65;;;;;;;;;;4999034;28;20616;-70
2022/04/28 05:02:24;;;;;;;16.15;3.13;;;;;;;;;;5001656;28;20061;-70
2022/04/28 05:04:51;;;;;;;13.30;2.85;;;;;;;;;;4997894;28;20125;-70
2022/04/28 05:07:19;;;;;;;17.20;2.95;;;;;;;;;;4999114;28;20062;-70
2022/04/28 05:09:46;;;;;;;18.33;3.05;;;;;;;;;;4993893;28;20054;-70
2022/04/28 05:12:13;;;;;;;19.38;3.13;;;;;;;;;;4994407;28;20101;-70
2022/04/28 05:14:42;;;;;;;12.98;2.95;;;;;;;;;;5004434;28;20408;-70
2022/04/28 05:17:09;;;;;;;15.02;2.63;;;;;;;;;;4998741;28;20690;-70
2022/04/28 05:19:36;;;;;;;9.60;2.55;;;;;;;;;;5003675;28;20058;-71
2022/04/28 05:22:04;;;;;;;13.52;3.63;;;;;;;;;;4999694;28;20045;-71
2022/04/28 05:24:31;;;;;;;18.80;2.80;;;;;;;;;;5000092;28;20130;-71
2022/04/28 05:26:58;;;;;;;13.55;2.72;;;;;;;;;;5002710;28;20128;-71
2022/04/28 05:29:25;;;;;;;9.95;2.78;;;;;;;;;;4998186;28;20695;-71
2022/04/28 05:31:54;;;;;;;13.07;3.25;;;;;;;;;;4999455;28;20054;-71
2022/04/28 05:34:21;;;;;;;16.75;2.80;;;;;;;;;;5004182;28;20050;-71
2022/04/28 05:36:50;;;;;;;13.50;2.80;;;;;;;;;;4995497;28;20042;-71
2022/04/28 05:39:17;;;;;;;11.30;2.75;;;;;;;;;;4997210;28;20579;-71
2022/04/28 05:41:44;;;;;;;16.10;2.75;;;;;;;;;;4997787;28;20052;-71
2022/04/28 05:46:58;;;;;;;10.68;3.58;;;;;;;;;;5004549;28;20058;-70
2022/04/28 05:49:25;;;;;;;17.67;3.08;;;;;;;;;;4998060;28;20065;-70
2022/04/28 05:51:52;;;;;;;9.75;2.65;;;;;;;;;;4999689;28;20507;-71
2022/04/28 05:54:20;;;;;;;10.38;2.80;;;;;;;;;;4996160;28;20061;-70
2022/04/28 05:56:47;;;;;;;10.15;2.70;;;;;;;;;;4993470;28;20626;-70
2022/04/28 05:59:14;;;;;;;14.52;2.80;;;;;;;;;;5001204;28;20057;-70
2022/04/28 06:01:41;;;;;;;9.00;2.50;;;;;;;;;;5001590;28;20100;-70
2022/04/28 06:04:10;;;;;;;10.95;2.35;;;;;;;;;;5003059;28;20049;-70
2022/04/28 06:06:37;;;;;;;12.65;2.08;;;;;;;;;;5002614;28;20046;-70
2022/04/28 06:09:05;;;;;;;10.85;1.75;;;;;;;;;;5009131;28;20054;-71
2022/04/28 06:11:32;;;;;;;17.13;2.10;;;;;;;;;;5001144;28;20112;-70
2022/04/28 06:13:59;;;;;;;10.35;2.25;;;;;;;;;;5005987;28;20058;-71
2022/04/28 06:16:27;;;;;;;9.65;2.33;;;;;;;;;;5007599;28;20481;-70
2022/04/28 06:18:54;;;;;;;10.32;2.42;;;;;;;;;;4995527;28;20595;-70
2022/04/28 06:21:22;;;;;;;14.57;2.28;;;;;;;;;;4999839;28;20463;-70
2022/04/28 06:23:49;;;;;;;11.20;2.60;;;;;;;;;;4997080;28;20123;-70
2022/04/28 06:26:17;;;;;;;17.40;2.95;;;;;;;;;;4999004;28;20046;-71
2022/04/28 06:28:44;;;;;;;11.02;2.28;;;;;;;;;;5002837;28;20061;-71
2022/04/28 06:31:11;;;;;;;10.80;2.00;;;;;;;;;;5008164;28;20421;-71
2022/04/28 06:33:41;;;;;;;9.43;1.85;;;;;;;;;;5005531;28;20050;-71
2022/04/28 06:36:08;;;;;;;10.93;1.90;;;;;;;;;;5007318;28;20152;-70
2022/04/28 06:38:37;;;;;;;8.75;2.42;;;;;;;;;;5006887;28;20089;-70
2022/04/28 06:41:04;;;;;;;12.55;2.22;;;;;;;;;;5002174;28;20492;-70
2022/04/28 06:43:32;;;;;;;11.65;2.30;;;;;;;;;;5007196;28;20061;-71
2022/04/28 06:46:15;;;;;;;11.00;1.70;;;;;;;;;;4999433;28;20061;-71
2022/04/28 06:48:42;;;;;;;7.47;1.58;;;;;;;;;;5000385;28;20068;-71
2022/04/28 06:51:10;;;;;;;8.07;1.90;;;;;;;;;;5004259;28;20054;-70
2022/04/28 06:53:40;;;;;;;8.55;2.03;;;;;;;;;;5002085;28;20058;-70
2022/04/28 06:56:07;;;;;;;13.00;1.92;;;;;;;;;;5005237;28;20051;-70
2022/04/28 06:58:36;;;;;;;8.77;1.83;;;;;;;;;;4994996;28;20058;-70
2022/04/28 07:01:03;;;;;;;7.63;1.40;;;;;;;;;;4999782;28;20038;-70
2022/04/28 07:03:31;;;;;;;9.70;1.55;;;;;;;;;;4995024;28;20046;-70
2022/04/28 07:05:58;;;;;;;11.10;1.63;;;;;;;;;;4997443;28;21585;-70
2022/04/28 07:08:25;;;;;;;10.98;1.83;;;;;;;;;;4997117;28;20049;-70
2022/04/28 07:10:54;;;;;;;17.15;2.75;;;;;;;;;;4999948;28;20046;-70
2022/04/28 07:13:21;;;;;;;10.63;1.88;;;;;;;;;;4999113;28;20112;-70
2022/04/28 07:15:48;;;;;;;6.18;1.58;;;;;;;;;;4997984;28;20457;-70
2022/04/28 07:18:16;;;;;;;9.60;1.60;;;;;;;;;;4999716;28;20050;-70
2022/04/28 07:20:44;;;;;;;8.63;1.98;;;;;;;;;;4998130;28;20050;-70
2022/04/28 07:23:11;;;;;;;7.03;1.40;;;;;;;;;;4998455;28;20062;-70
2022/04/28 07:25:39;;;;;;;14.43;1.55;;;;;;;;;;5016141;28;20054;-70
2022/04/28 07:28:08;;;;;;;10.32;2.00;;;;;;;;;;5000188;28;21375;-70
2022/04/28 07:30:35;;;;;;;10.02;1.73;;;;;;;;;;4995676;28;20054;-70
2022/04/28 07:33:03;;;;;;;12.10;1.90;;;;;;;;;;4999893;28;20061;-71
2022/04/28 07:35:31;;;;;;;10.20;1.70;;;;;;;;;;4999223;28;20165;-70
2022/04/28 07:37:58;;;;;;;8.70;1.58;;;;;;;;;;4993352;28;20057;-70
2022/04/28 07:40:26;;;;;;;9.57;1.55;;;;;;;;;;4998015;28;20069;-70
2022/04/28 07:42:53;;;;;;;10.35;2.05;;;;;;;;;;4999476;28;20062;-71
2022/04/28 07:45:22;;;;;;;11.57;1.73;;;;;;;;;;4997744;28;20046;-71
2022/04/28 07:47:50;;;;;;;10.13;2.25;;;;;;;;;;4998367;28;20049;-70
2022/04/28 07:50:17;;;;;;;10.15;2.00;;;;;;;;;;4998775;28;20386;-70
2022/04/28 07:52:45;;;;;;;12.63;1.73;;;;;;;;;;4998970;28;20045;-70
2022/04/28 07:55:12;;;;;;;7.30;2.17;;;;;;;;;;4998982;28;20053;-70
2022/04/28 07:57:41;;;;;;;8.52;1.98;;;;;;;;;;4996505;28;20425;-70
2022/04/28 08:00:09;;;;;;;8.90;1.48;;;;;;;;;;4997542;28;20140;-70
2022/04/28 08:02:38;;;;;;;12.98;1.77;;;;;;;;;;4998526;28;20456;-70
2022/04/28 08:05:05;;;;;;;9.65;1.52;;;;;;;;;;5011988;28;20065;-70
2022/04/28 08:07:33;;;;;;;9.02;1.75;;;;;;;;;;4999560;28;20068;-70
2022/04/28 08:10:00;;;;;;;9.38;1.65;;;;;;;;;;4998737;28;20046;-71
2022/04/28 08:12:27;;;;;;;7.93;1.73;;;;;;;;;;4997530;28;20061;-71
2022/04/28 08:14:55;;;;;;;11.32;2.22;;;;;;;;;;4998077;28;20365;-71
2022/04/28 08:17:22;;;;;;;15.35;2.03;;;;;;;;;;4997181;28;20100;-71
2022/04/28 08:19:51;;;;;;;10.23;2.42;;;;;;;;;;5000744;28;20137;-71
2022/04/28 08:22:18;;;;;;;11.95;1.92;;;;;;;;;;4999032;28;20050;-71
2022/04/28 08:24:45;;;;;;;7.88;1.50;;;;;;;;;;4995383;28;20053;-71
2022/04/28 08:27:12;;;;;;;14.73;2.10;;;;;;;;;;4996515;28;20054;-71
2022/04/28 08:29:40;;;;;;;8.40;1.85;;;;;;;;;;4998936;28;20053;-71
2022/04/28 08:32:09;;;;;;;11.52;2.00;;;;;;;;;;4994221;28;20109;-71
2022/04/28 08:34:37;;;;;;;10.57;2.00;;;;;;;;;;4998234;28;20104;-71
2022/04/28 08:37:05;;;;;;;12.15;2.20;;;;;;;;;;4996757;28;20061;-71
2022/04/28 08:39:33;;;;;;;10.63;2.03;;;;;;;;;;4997800;28;20512;-71
2022/04/28 08:42:00;;;;;;;11.05;2.03;;;;;;;;;;4997092;28;20054;-71
2022/04/28 08:44:29;;;;;;;12.32;2.47;;;;;;;;;;4998779;28;20537;-71
2022/04/28 08:46:57;;;;;;;7.70;1.88;;;;;;;;;;4996961;28;20046;-71
2022/04/28 08:49:25;;;;;;;12.93;2.00;;;;;;;;;;4995533;28;20053;-71
2022/04/28 08:51:53;;;;;;;11.27;1.88;;;;;;;;;;4997658;28;20520;-71
2022/04/28 08:54:22;;;;;;;8.90;1.85;;;;;;;;;;4999014;28;20488;-71
2022/04/28 08:56:51;;;;;;;9.02;1.80;;;;;;;;;;4993395;28;20069;-71
2022/04/28 08:59:19;;;;;;;9.48;1.70;;;;;;;;;;4996306;28;20153;-71
2022/04/28 09:01:46;;;;;;;12.20;2.10;;;;;;;;;;4992584;28;20057;-71
2022/04/28 09:04:14;;;;;;;11.18;2.00;;;;;;;;;;4996374;28;20524;-71
2022/04/28 09:06:42;;;;;;;12.07;1.95;;;;;;;;;;4995904;28;20107;-71
2022/04/28 09:09:10;;;;;;;11.43;2.03;;;;;;;;;;4997147;28;20132;-71
2022/04/28 09:11:40;;;;;;;11.43;2.10;;;;;;;;;;4997543;28;20061;-71
2022/04/28 09:14:12;;;;;;;17.73;2.67;;;;;;;;;;4997801;28;20062;-71
2022/04/28 09:16:41;;;;;;;15.55;2.67;;;;;;;;;;5016747;28;20061;-71
2022/04/28 09:19:08;;;;;;;11.68;2.30;;;;;;;;;;4995274;28;20153;-71
2022/04/28 09:21:36;;;;;;;12.52;2.75;;;;;;;;;;4994459;28;20047;-71
2022/04/28 09:24:04;;;;;;;10.85;2.78;;;;;;;;;;4996008;28;20097;-71
2022/04/28 09:26:32;;;;;;;11.10;2.13;;;;;;;;;;4999721;28;20057;-71
2022/04/28 09:29:03;;;;;;;11.52;2.25;;;;;;;;;;4998991;28;20324;-71
2022/04/28 09:31:30;;;;;;;9.88;2.08;;;;;;;;;;5003821;28;20053;-71
2022/04/28 09:34:04;;;;;;;12.60;2.17;;;;;;;;;;5004887;28;20058;-71
2022/04/28 09:36:32;;;;;;;11.00;2.95;;;;;;;;;;5002103;28;20511;-71
2022/04/28 09:38:59;;;;;;;12.27;2.72;;;;;;;;;;5005480;28;20057;-71
2022/04/28 09:44:13;;;;;;;11.77;2.53;;;;;;;;;;5003730;28;20042;-71
2022/04/28 09:46:41;;;;;;;14.18;3.15;;;;;;;;;;5006617;28;20499;-71
2022/04/28 09:49:09;;;;;;;11.57;2.60;;;;;;;;;;5007258;28;20037;-70
2022/04/28 09:51:38;;;;;;;11.63;2.55;;;;;;;;;;5007796;28;20045;-70
2022/04/28 09:54:07;;;;;;;19.85;2.47;;;;;;;;;;5011065;28;20511;-70
2022/04/28 09:56:35;;;;;;;12.10;2.53;;;;;;;;;;4997623;28;20065;-70
2022/04/28 09:59:05;;;;;;;10.88;2.25;;;;;;;;;;5005592;28;20520;-70
2022/04/28 10:01:34;;;;;;;13.70;2.67;;;;;;;;;;5008419;28;20100;-70
2022/04/28 10:04:01;;;;;;;10.85;2.65;;;;;;;;;;5003605;28;20168;-70
2022/04/28 10:06:34;;;;;;;11.95;2.50;;;;;;;;;;5008174;28;20655;-70
2022/04/28 10:09:04;;;;;;;11.00;2.47;;;;;;;;;;5007583;28;20511;-70
2022/04/28 10:11:32;;;;;;;11.75;2.47;;;;;;;;;;5007122;28;21370;-70
2022/04/28 10:14:00;;;;;;;9.60;2.28;;;;;;;;;;5008342;28;20072;-70
2022/04/28 10:16:28;;;;;;;10.63;2.65;;;;;;;;;;5008704;28;20112;-70
2022/04/28 10:19:01;;;;;;;11.05;2.30;;;;;;;;;;5004888;28;20042;-70
2022/04/28 10:21:31;;;;;;;15.68;2.83;;;;;;;;;;5008004;28;20058;-70
2022/04/28 10:32:34;;;;;;;13.35;2.33;;;;;;;;;;5006976;28;20050;-70
2022/04/28 10:35:03;;;;;;;14.70;2.97;;;;;;;;;;5001836;28;20101;-70
2022/04/28 10:37:34;;;;;;;11.70;2.47;;;;;;;;;;5007494;28;20069;-70
2022/04/28 10:40:01;;;;;;;13.05;1.90;;;;;;;;;;5007671;28;20057;-70
2022/04/28 10:42:47;;;;;;;11.85;2.53;;;;;;;;;;5005898;28;20065;-70
2022/04/28 10:45:19;;;;;;;14.07;2.20;;;;;;;;;;5004415;28;20058;-70
2022/04/28 10:47:47;;;;;;;10.48;2.83;;;;;;;;;;5006779;28;20050;-71
2022/04/28 10:50:24;;;;;;;12.35;2.63;;;;;;;;;;5007873;28;20054;-71
2022/04/28 10:53:01;;;;;;;11.90;2.17;;;;;;;;;;5010805;28;20103;-71
2022/04/28 10:55:33;;;;;;;11.38;2.30;;;;;;;;;;5001323;28;20057;-71
2022/04/28 10:58:18;;;;;;;11.13;2.40;;;;;;;;;;5007548;28;20050;-71
2022/04/28 11:00:52;;;;;;;10.45;2.40;;;;;;;;;;5007983;28;21027;-71
2022/04/28 11:03:34;;;;;;;7.68;1.80;;;;;;;;;;5005551;28;20080;-71
2022/04/28 11:06:09;;;;;;;10.85;2.22;;;;;;;;;;5005756;28;20500;-71
2022/04/28 11:08:36;;;;;;;11.70;2.60;;;;;;;;;;5001728;28;20051;-71
2022/04/28 11:11:13;;;;;;;13.20;2.60;;;;;;;;;;5006056;28;20062;-71
2022/04/28 11:13:50;;;;;;;15.00;2.58;;;;;;;;;;5003735;28;20096;-71
2022/04/28 11:16:18;;;;;;;11.20;2.40;;;;;;;;;;5003199;28;20054;-71
2022/04/28 11:18:45;;;;;;;13.85;2.72;;;;;;;;;;5006983;28;20052;-71
2022/04/28 11:21:14;;;;;;;10.10;2.10;;;;;;;;;;5007904;28;20065;-71
2022/04/28 11:23:43;;;;;;;12.82;2.20;;;;;;;;;;5005215;28;20053;-71
2022/04/28 11:26:11;;;;;;;10.55;2.08;;;;;;;;;;5007105;28;20057;-71
2022/04/28 11:28:38;;;;;;;12.65;2.03;;;;;;;;;;5002548;28;20050;-71
2022/04/28 11:31:10;;;;;;;8.90;2.13;;;;;;;;;;5000591;28;20077;-71
2022/04/28 11:33:37;;;;;;;13.45;2.15;;;;;;;;;;5004872;28;20053;-71
2022/04/28 11:36:16;;;;;;;11.90;1.92;;;;;;;;;;5001213;28;20081;-71
2022/04/28 11:38:49;;;;;;;11.10;2.10;;;;;;;;;;5002070;28;20057;-71
2022/04/28 11:41:16;;;;;;;11.03;2.37;;;;;;;;;;5004606;28;20121;-71
2022/04/28 11:43:47;;;;;;;15.55;2.63;;;;;;;;;;4994681;28;20061;-71
2022/04/28 11:46:14;;;;;;;11.10;2.45;;;;;;;;;;5002506;28;20064;-71
2022/04/28 11:48:41;;;;;;;7.40;2.15;;;;;;;;;;5002664;28;20068;-71
2022/04/28 11:51:09;;;;;;;11.77;2.42;;;;;;;;;;5006332;28;20054;-71
2022/04/28 11:53:46;;;;;;;12.35;2.00;;;;;;;;;;5004643;28;20408;-71
2022/04/28 11:56:17;;;;;;;12.77;2.30;;;;;;;;;;5003429;28;20077;-71
2022/04/28 11:58:47;;;;;;;11.45;2.05;;;;;;;;;;5003348;28;20042;-71
2022/04/28 12:01:14;;;;;;;14.40;2.17;;;;;;;;;;5005950;28;20165;-71
2022/04/28 12:03:47;;;;;;;14.10;2.75;;;;;;;;;;5005802;28;20049;-71
2022/04/28 12:06:16;;;;;;;13.00;2.47;;;;;;;;;;5003539;28;20060;-71
2022/04/28 12:08:49;;;;;;;10.95;2.15;;;;;;;;;;5002666;28;20144;-71
2022/04/28 12:19:28;;;;;;;15.38;2.80;;;;;;;;;;5006831;28;20099;-71
2022/04/28 12:22:02;;;;;;;10.43;2.35;;;;;;;;;;5001881;28;20050;-71
2022/04/28 12:24:34;;;;;;;13.27;2.15;;;;;;;;;;5002922;28;20493;-71
2022/04/28 12:27:07;;;;;;;9.18;2.00;;;;;;;;;;5001861;28;20053;-71
2022/04/28 12:29:34;;;;;;;;;;;;;;;;;;5005829;28;20358;-71
2022/04/28 12:32:01;;;;;;;7.93;1.88;;;;;;;;;;5005818;28;19928;-71
2022/04/28 12:34:28;;;;;;;12.82;2.72;;;;;;;;;;5002601;28;20054;-70
2022/04/28 12:36:57;;;;;;;10.32;2.00;;;;;;;;;;5003220;28;20042;-70
2022/04/28 12:39:26;;;;;;;11.60;2.20;;;;;;;;;;5001374;28;20050;-70
2022/04/28 12:41:54;;;;;;;10.27;2.13;;;;;;;;;;5001462;28;20081;-70
2022/04/28 12:44:23;;;;;;;6.32;1.80;;;;;;;;;;5008147;28;20053;-70
2022/04/28 12:46:55;;;;;;;10.68;2.10;;;;;;;;;;5004677;28;20518;-70
2022/04/28 12:49:23;;;;;;;11.07;1.73;;;;;;;;;;5002812;28;20054;-70
2022/04/28 12:51:53;;;;;;;8.43;2.13;;;;;;;;;;5004829;28;20115;-70
2022/04/28 12:54:23;;;;;;;7.07;1.83;;;;;;;;;;5006429;28;20131;-70
2022/04/28 12:56:57;;;;;;;7.47;1.85;;;;;;;;;;5005244;28;20416;-71
2022/04/28 12:59:28;;;;;;;14.82;2.35;;;;;;;;;;5005471;28;20064;-71
2022/04/28 13:01:56;;;;;;;8.13;2.05;;;;;;;;;;5005316;28;20052;-71
2022/04/28 13:04:24;;;;;;;11.02;2.28;;;;;;;;;;5006921;28;20151;-71
2022/04/28 13:06:52;;;;;;;11.98;2.15;;;;;;;;;;5003242;28;20094;-71
2022/04/28 13:09:20;;;;;;;8.50;1.77;;;;;;;;;;4995082;28;20576;-71
2022/04/28 13:11:49;;;;;;;12.25;1.98;;;;;;;;;;4996563;28;20132;-71
2022/04/28 13:14:19;;;;;;;8.40;1.70;;;;;;;;;;4991516;28;20046;-71
2022/04/28 13:16:47;;;;;;;10.48;1.70;;;;;;;;;;4998596;28;20057;-71
2022/04/28 13:19:14;;;;;;;7.45;1.83;;;;;;;;;;4996454;28;20837;-71
2022/04/28 13:21:42;;;;;;;8.02;1.80;;;;;;;;;;4992293;28;20054;-71
2022/04/28 13:24:09;;;;;;;7.00;1.70;;;;;;;;;;4996516;28;20419;-71
2022/04/28 13:26:37;;;;;;;9.02;1.90;;;;;;;;;;4995475;28;20053;-71
2022/04/28 13:29:05;;;;;;;10.25;2.40;;;;;;;;;;4996177;28;20515;-71
2022/04/28 13:31:35;;;;;;;6.80;1.98;;;;;;;;;;4994149;28;20046;-70
2022/04/28 13:34:02;;;;;;;9.88;1.85;;;;;;;;;;4996810;28;20053;-71
2022/04/28 13:36:29;;;;;;;8.85;1.88;;;;;;;;;;4998871;28;20567;-71
2022/04/28 13:38:56;;;;;;;11.63;1.85;;;;;;;;;;4999975;28;20050;-71
2022/04/28 13:41:23;;;;;;;9.82;2.10;;;;;;;;;;4998603;28;20513;-71
2022/04/28 13:43:51;;;;;;;6.57;1.50;;;;;;;;;;5010320;28;20113;-71
2022/04/28 13:46:19;;;;;;;8.48;1.90;;;;;;;;;;4996645;28;20517;-71
2022/04/28 13:48:47;;;;;;;9.68;1.90;;;;;;;;;;5001404;28;20128;-71
2022/04/28 13:51:15;;;;;;;6.53;1.88;;;;;;;;;;5002160;28;20049;-71
2022/04/28 13:53:43;;;;;;;8.93;1.80;;;;;;;;;;5002915;28;20060;-71
2022/04/28 13:56:10;;;;;;;11.10;1.95;;;;;;;;;;5002385;28;20058;-71
2022/04/28 13:58:38;;;;;;;10.32;1.80;;;;;;;;;;5004829;28;20123;-70
2022/04/28 14:01:05;;;;;;;6.35;1.50;;;;;;;;;;5005668;28;20046;-71
2022/04/28 14:03:33;;;;;;;7.93;1.77;;;;;;;;;;5003695;28;20050;-71
2022/04/28 14:06:03;;;;;;;4.85;1.50;;;;;;;;;;5003603;28;20054;-71
2022/04/28 14:08:30;;;;;;;8.00;1.77;;;;;;;;;;5003850;28;20058;-71
2022/04/28 14:10:59;;;;;;;12.70;2.40;;;;;;;;;;5001880;28;20065;-71
2022/04/28 14:13:26;;;;;;;9.40;2.40;;;;;;;;;;5004335;28;20140;-71
2022/04/28 14:15:53;;;;;;;6.72;1.60;;;;;;;;;;5006296;28;20050;-71
2022/04/28 14:18:20;;;;;;;10.65;1.80;;;;;;;;;;5004063;28;20129;-71
2022/04/28 14:20:47;;;;;;;9.27;1.83;;;;;;;;;;5001436;28;20050;-71
2022/04/28 14:23:16;;;;;;;10.68;2.30;;;;;;;;;;5003193;28;20060;-71
2022/04/28 14:25:43;;;;;;;7.00;1.90;;;;;;;;;;5004803;28;20058;-71
2022/04/28 14:28:11;;;;;;;7.80;1.92;;;;;;;;;;5006763;28;20084;-71
2022/04/28 14:30:38;;;;;;;6.45;1.83;;;;;;;;;;5004568;28;20058;-71
2022/04/28 14:33:05;;;;;;;7.10;1.92;;;;;;;;;;5007148;28;20053;-71
2022/04/28 14:35:34;;;;;;;8.05;1.90;;;;;;;;;;5006275;28;20085;-71
2022/04/28 14:38:01;;;;;;;6.65;1.67;;;;;;;;;;5008853;28;20056;-71
2022/04/28 14:40:30;;;;;;;8.13;2.00;;;;;;;;;;5002900;28;20092;-71
2022/04/28 14:42:57;;;;;;;8.60;1.60;;;;;;;;;;5007289;28;20355;-71
2022/04/28 14:45:25;;;;;;;6.70;1.63;;;;;;;;;;5006341;28;20058;-71
2022/04/28 14:47:52;;;;;;;9.65;2.13;;;;;;;;;;5004004;28;20050;-70
2022/04/28 14:53:04;;;;;;;5.85;1.70;;;;;;;;;;5009594;28;20057;-71
2022/04/28 14:55:32;;;;;;;7.97;1.73;;;;;;;;;;5007172;28;20049;-71
2022/04/28 14:58:06;;;;;;;13.07;2.28;;;;;;;;;;5007547;28;20717;-72
2022/04/28 15:00:34;;;;;;;7.75;1.98;;;;;;;;;;5002923;28;20604;-71
2022/04/28 15:03:01;;;;;;;6.07;1.73;;;;;;;;;;5005238;28;20050;-71
2022/04/28 15:05:28;;;;;;;11.88;2.38;;;;;;;;;;5008973;28;20050;-71
2022/04/28 15:07:56;;;;;;;6.90;1.48;;;;;;;;;;5006869;28;20064;-71
2022/04/28 15:10:23;;;;;;;10.43;2.10;;;;;;;;;;5007885;28;20046;-72
2022/04/28 15:12:54;;;;;;;9.93;2.08;;;;;;;;;;5005909;28;20062;-71
2022/04/28 15:15:21;;;;;;;8.93;2.17;;;;;;;;;;5011480;28;20108;-71